sensor_id;sensor_type;location;lat;lon;timestamp;pressure;altitude;pressure_sealevel;temperature;humidity
22389;BME280;11362;48.102;11.620;2023-01-25T00:00:08;96583.84;;;23.30;34.84
22389;BME280;11362;48.102;11.620;2023-01-25T00:02:35;96591.00;;;23.31;35.00
22389;BME280;11362;48.102;11.620;2023-01-25T00:05:00;96584.63;;;23.30;34.96
22389;BME280;11362;48.102;11.620;2023-01-25T00:07:26;96583.84;;;23.30;34.92
22389;BME280;11362;48.102;11.620;2023-01-25T00:09:51;96586.63;;;23.30;35.04
22389;BME280;11362;48.102;11.620;2023-01-25T00:12:16;96582.66;;;23.31;34.96
22389;BME280;11362;48.102;11.620;2023-01-25T00:14:42;96587.41;;;23.30;34.74
22389;BME280;11362;48.102;11.620;2023-01-25T00:17:07;96581.09;;;23.30;34.69
22389;BME280;11362;48.102;11.620;2023-01-25T00:19:32;96582.28;;;23.29;34.59
22389;BME280;11362;48.102;11.620;2023-01-25T00:21:58;96576.72;;;23.29;34.44
22389;BME280;11362;48.102;11.620;2023-01-25T00:24:23;96574.31;;;23.27;34.66
22389;BME280;11362;48.102;11.620;2023-01-25T00:26:48;96580.69;;;23.28;34.63
22389;BME280;11362;48.102;11.620;2023-01-25T00:29:14;96589.00;;;23.28;34.65
22389;BME280;11362;48.102;11.620;2023-01-25T00:31:40;96582.66;;;23.27;34.80
22389;BME280;11362;48.102;11.620;2023-01-25T00:36:50;96577.91;;;23.28;34.73
22389;BME280;11362;48.102;11.620;2023-01-25T00:39:15;96578.28;;;23.26;34.68
22389;BME280;11362;48.102;11.620;2023-01-25T00:41:41;96577.47;;;23.26;34.57
22389;BME280;11362;48.102;11.620;2023-01-25T00:44:07;96574.31;;;23.27;34.67
22389;BME280;11362;48.102;11.620;2023-01-25T00:46:32;96567.56;;;23.25;34.49
22389;BME280;11362;48.102;11.620;2023-01-25T00:48:58;96573.50;;;23.27;34.67
22389;BME280;11362;48.102;11.620;2023-01-25T00:51:23;96567.16;;;23.23;34.62
22389;BME280;11362;48.102;11.620;2023-01-25T00:53:49;96572.72;;;23.23;34.80
22389;BME280;11362;48.102;11.620;2023-01-25T00:56:15;96574.28;;;23.24;34.68
22389;BME280;11362;48.102;11.620;2023-01-25T00:58:40;96571.91;;;23.22;34.79
22389;BME280;11362;48.102;11.620;2023-01-25T01:01:05;96575.09;;;23.24;34.47
22389;BME280;11362;48.102;11.620;2023-01-25T01:03:31;96578.25;;;23.23;34.39
22389;BME280;11362;48.102;11.620;2023-01-25T01:06:06;96571.53;;;23.24;34.59
22389;BME280;11362;48.102;11.620;2023-01-25T01:08:34;96579.47;;;23.25;34.59
22389;BME280;11362;48.102;11.620;2023-01-25T01:11:00;96575.88;;;23.25;34.54
22389;BME280;11362;48.102;11.620;2023-01-25T01:13:27;96571.13;;;23.22;34.37
22389;BME280;11362;48.102;11.620;2023-01-25T01:15:53;96573.88;;;23.22;34.48
22389;BME280;11362;48.102;11.620;2023-01-25T01:18:18;96575.06;;;23.21;34.65
22389;BME280;11362;48.102;11.620;2023-01-25T01:20:53;96575.84;;;23.21;34.59
22389;BME280;11362;48.102;11.620;2023-01-25T01:23:19;96571.13;;;23.22;34.31
22389;BME280;11362;48.102;11.620;2023-01-25T01:25:45;96576.66;;;23.22;34.44
22389;BME280;11362;48.102;11.620;2023-01-25T01:28:10;96567.53;;;23.21;34.46
22389;BME280;11362;48.102;11.620;2023-01-25T01:30:36;96563.97;;;23.21;34.58
22389;BME280;11362;48.102;11.620;2023-01-25T01:33:02;96563.19;;;23.20;34.31
22389;BME280;11362;48.102;11.620;2023-01-25T01:35:28;96557.63;;;23.20;34.11
22389;BME280;11362;48.102;11.620;2023-01-25T01:37:53;96556.81;;;23.20;34.49
22389;BME280;11362;48.102;11.620;2023-01-25T01:40:18;96554.06;;;23.20;34.40
22389;BME280;11362;48.102;11.620;2023-01-25T01:43:05;96563.56;;;23.19;34.26
22389;BME280;11362;48.102;11.620;2023-01-25T01:45:48;96556.06;;;23.23;34.23
22389;BME280;11362;48.102;11.620;2023-01-25T01:48:29;96556.81;;;23.20;34.19
22389;BME280;11362;48.102;11.620;2023-01-25T01:50:59;96561.22;;;23.21;34.24
22389;BME280;11362;48.102;11.620;2023-01-25T01:53:26;96555.66;;;23.21;34.49
22389;BME280;11362;48.102;11.620;2023-01-25T01:55:56;96561.22;;;23.21;34.21
22389;BME280;11362;48.102;11.620;2023-01-25T01:58:23;96564.38;;;23.23;34.23
22389;BME280;11362;48.102;11.620;2023-01-25T02:00:49;96569.13;;;23.22;34.17
22389;BME280;11362;48.102;11.620;2023-01-25T02:03:15;96561.63;;;23.23;34.04
22389;BME280;11362;48.102;11.620;2023-01-25T02:06:03;96558.84;;;23.23;34.01
22389;BME280;11362;48.102;11.620;2023-01-25T02:08:32;96558.47;;;23.24;33.98
22389;BME280;11362;48.102;11.620;2023-01-25T02:10:59;96553.31;;;23.23;33.89
22389;BME280;11362;48.102;11.620;2023-01-25T02:13:25;96557.66;;;23.24;34.06
22389;BME280;11362;48.102;11.620;2023-01-25T02:15:52;96564.38;;;23.23;33.95
22389;BME280;11362;48.102;11.620;2023-01-25T02:18:18;96559.22;;;23.21;34.07
22389;BME280;11362;48.102;11.620;2023-01-25T02:20:46;96564.75;;;23.21;33.70
22389;BME280;11362;48.102;11.620;2023-01-25T02:23:33;96555.66;;;23.21;33.81
22389;BME280;11362;48.102;11.620;2023-01-25T02:26:03;96563.19;;;23.20;34.23
22389;BME280;11362;48.102;11.620;2023-01-25T02:28:34;96553.69;;;23.21;34.15
22389;BME280;11362;48.102;11.620;2023-01-25T02:31:01;96553.28;;;23.19;33.99
22389;BME280;11362;48.102;11.620;2023-01-25T02:33:27;96552.09;;;23.20;34.19
22389;BME280;11362;48.102;11.620;2023-01-25T02:35:58;96552.91;;;23.21;34.09
22389;BME280;11362;48.102;11.620;2023-01-25T02:38:24;96558.44;;;23.21;34.22
22389;BME280;11362;48.102;11.620;2023-01-25T02:40:54;96556.06;;;23.23;34.06
22389;BME280;11362;48.102;11.620;2023-01-25T02:43:23;96554.50;;;23.22;34.09
22389;BME280;11362;48.102;11.620;2023-01-25T02:46:02;96542.97;;;23.20;34.11
22389;BME280;11362;48.102;11.620;2023-01-25T02:48:31;96541.81;;;23.21;34.34
22389;BME280;11362;48.102;11.620;2023-01-25T02:50:57;96542.59;;;23.21;34.06
22389;BME280;11362;48.102;11.620;2023-01-25T02:53:22;96532.31;;;23.22;33.80
22389;BME280;11362;48.102;11.620;2023-01-25T02:55:47;96537.84;;;23.22;33.97
22389;BME280;11362;48.102;11.620;2023-01-25T02:58:12;96539.03;;;23.21;33.91
22389;BME280;11362;48.102;11.620;2023-01-25T03:00:38;96541.00;;;23.20;34.10
22389;BME280;11362;48.102;11.620;2023-01-25T03:03:03;96537.03;;;23.21;33.98
22389;BME280;11362;48.102;11.620;2023-01-25T03:05:28;96531.50;;;23.21;34.01
22389;BME280;11362;48.102;11.620;2023-01-25T03:07:53;96529.91;;;23.20;33.92
22389;BME280;11362;48.102;11.620;2023-01-25T03:10:19;96523.56;;;23.20;33.83
22389;BME280;11362;48.102;11.620;2023-01-25T03:12:44;96525.19;;;23.21;33.86
22389;BME280;11362;48.102;11.620;2023-01-25T03:15:09;96529.09;;;23.20;33.73
22389;BME280;11362;48.102;11.620;2023-01-25T03:17:35;96523.56;;;23.20;33.86
22389;BME280;11362;48.102;11.620;2023-01-25T03:20:00;96530.72;;;23.21;33.66
22389;BME280;11362;48.102;11.620;2023-01-25T03:22:25;96514.47;;;23.19;33.74
22389;BME280;11362;48.102;11.620;2023-01-25T03:24:51;96508.53;;;23.21;33.81
22389;BME280;11362;48.102;11.620;2023-01-25T03:27:16;96512.09;;;23.21;33.93
22389;BME280;11362;48.102;11.620;2023-01-25T03:29:41;96505.78;;;23.21;34.01
22389;BME280;11362;48.102;11.620;2023-01-25T03:32:07;96507.72;;;23.20;33.68
22389;BME280;11362;48.102;11.620;2023-01-25T03:34:32;96511.31;;;23.21;33.76
22389;BME280;11362;48.102;11.620;2023-01-25T03:36:58;96517.63;;;23.21;33.74
22389;BME280;11362;48.102;11.620;2023-01-25T03:39:23;96526.31;;;23.20;33.69
22389;BME280;11362;48.102;11.620;2023-01-25T03:41:48;96514.09;;;23.21;33.79
22389;BME280;11362;48.102;11.620;2023-01-25T03:44:14;96512.47;;;23.20;33.68
22389;BME280;11362;48.102;11.620;2023-01-25T03:46:40;96508.91;;;23.19;33.75
22389;BME280;11362;48.102;11.620;2023-01-25T03:49:06;96512.47;;;23.20;33.81
22389;BME280;11362;48.102;11.620;2023-01-25T03:51:32;96506.94;;;23.20;33.73
22389;BME280;11362;48.102;11.620;2023-01-25T03:53:57;96514.09;;;23.21;33.10
22389;BME280;11362;48.102;11.620;2023-01-25T03:56:23;96509.31;;;23.21;33.74
22389;BME280;11362;48.102;11.620;2023-01-25T03:58:48;96504.16;;;23.20;33.49
22389;BME280;11362;48.102;11.620;2023-01-25T04:01:13;96518.00;;;23.20;33.66
22389;BME280;11362;48.102;11.620;2023-01-25T04:03:39;96508.91;;;23.19;33.61
22389;BME280;11362;48.102;11.620;2023-01-25T04:06:05;96507.72;;;23.20;33.49
22389;BME280;11362;48.102;11.620;2023-01-25T04:08:31;96513.66;;;23.19;33.71
22389;BME280;11362;48.102;11.620;2023-01-25T04:11:00;96514.47;;;23.19;33.66
22389;BME280;11362;48.102;11.620;2023-01-25T04:13:26;96516.06;;;23.20;33.55
22389;BME280;11362;48.102;11.620;2023-01-25T04:15:52;96510.09;;;23.18;33.46
22389;BME280;11362;48.102;11.620;2023-01-25T04:18:18;96509.28;;;23.18;33.58
22389;BME280;11362;48.102;11.620;2023-01-25T04:20:44;96505.75;;;23.17;33.40
22389;BME280;11362;48.102;11.620;2023-01-25T04:23:09;96502.97;;;23.17;32.97
22389;BME280;11362;48.102;11.620;2023-01-25T04:25:35;96493.84;;;23.17;33.38
22389;BME280;11362;48.102;11.620;2023-01-25T04:28:01;96489.88;;;23.18;33.28
22389;BME280;11362;48.102;11.620;2023-01-25T04:30:27;96491.06;;;23.17;33.43
22389;BME280;11362;48.102;11.620;2023-01-25T04:32:52;96495.84;;;23.16;33.48
22389;BME280;11362;48.102;11.620;2023-01-25T04:35:18;96501.78;;;23.18;33.53
22389;BME280;11362;48.102;11.620;2023-01-25T04:37:43;96498.22;;;23.18;33.28
22389;BME280;11362;48.102;11.620;2023-01-25T04:40:09;96494.25;;;23.19;33.52
22389;BME280;11362;48.102;11.620;2023-01-25T04:42:34;96492.66;;;23.18;33.06
22389;BME280;11362;48.102;11.620;2023-01-25T04:44:59;96483.56;;;23.17;33.49
22389;BME280;11362;48.102;11.620;2023-01-25T04:47:25;96482.38;;;23.18;33.62
22389;BME280;11362;48.102;11.620;2023-01-25T04:49:50;96483.16;;;23.19;33.59
22389;BME280;11362;48.102;11.620;2023-01-25T04:52:15;96481.56;;;23.18;33.77
22389;BME280;11362;48.102;11.620;2023-01-25T04:54:41;96476.84;;;23.18;33.43
22389;BME280;11362;48.102;11.620;2023-01-25T04:57:06;96475.25;;;23.17;33.67
22389;BME280;11362;48.102;11.620;2023-01-25T04:59:31;96473.25;;;23.18;33.60
22389;BME280;11362;48.102;11.620;2023-01-25T05:01:57;96464.94;;;23.18;33.42
22389;BME280;11362;48.102;11.620;2023-01-25T05:04:22;96463.34;;;23.17;33.48
22389;BME280;11362;48.102;11.620;2023-01-25T05:06:47;96462.56;;;23.16;33.40
22389;BME280;11362;48.102;11.620;2023-01-25T05:09:12;96470.50;;;23.18;32.90
22389;BME280;11362;48.102;11.620;2023-01-25T05:11:38;96457.81;;;23.17;33.28
22389;BME280;11362;48.102;11.620;2023-01-25T05:14:03;96468.53;;;23.18;33.35
22389;BME280;11362;48.102;11.620;2023-01-25T05:16:28;96469.31;;;23.19;33.46
22389;BME280;11362;48.102;11.620;2023-01-25T05:18:54;96455.44;;;23.19;33.29
22389;BME280;11362;48.102;11.620;2023-01-25T05:21:20;96460.97;;;23.19;33.23
22389;BME280;11362;48.102;11.620;2023-01-25T05:23:45;96451.91;;;23.18;33.28
22389;BME280;11362;48.102;11.620;2023-01-25T05:26:11;96458.22;;;23.19;32.88
22389;BME280;11362;48.102;11.620;2023-01-25T05:28:36;96455.84;;;23.17;33.27
22389;BME280;11362;48.102;11.620;2023-01-25T05:31:04;96455.44;;;23.19;32.93
22389;BME280;11362;48.102;11.620;2023-01-25T05:33:30;96455.44;;;23.19;33.22
22389;BME280;11362;48.102;11.620;2023-01-25T05:35:55;96449.91;;;23.19;33.20
22389;BME280;11362;48.102;11.620;2023-01-25T05:38:21;96449.91;;;23.19;33.14
22389;BME280;11362;48.102;11.620;2023-01-25T05:40:46;96449.91;;;23.19;32.96
22389;BME280;11362;48.102;11.620;2023-01-25T05:43:11;96452.66;;;23.19;33.24
22389;BME280;11362;48.102;11.620;2023-01-25T05:45:37;96449.91;;;23.19;33.09
22389;BME280;11362;48.102;11.620;2023-01-25T05:48:02;96445.16;;;23.19;32.69
22389;BME280;11362;48.102;11.620;2023-01-25T05:50:27;96451.47;;;23.20;32.74
22389;BME280;11362;48.102;11.620;2023-01-25T05:52:53;96457.06;;;23.23;33.03
22389;BME280;11362;48.102;11.620;2023-01-25T05:55:18;96459.44;;;23.25;33.28
22389;BME280;11362;48.102;11.620;2023-01-25T05:57:43;96453.16;;;23.28;33.52
22389;BME280;11362;48.102;11.620;2023-01-25T06:00:10;96451.56;;;23.30;33.80
22389;BME280;11362;48.102;11.620;2023-01-25T06:02:35;96449.97;;;23.29;33.87
22389;BME280;11362;48.102;11.620;2023-01-25T06:05:01;96452.75;;;23.33;33.75
22389;BME280;11362;48.102;11.620;2023-01-25T06:07:26;96452.38;;;23.34;33.59
22389;BME280;11362;48.102;11.620;2023-01-25T06:09:52;96456.00;;;23.38;33.58
22389;BME280;11362;48.102;11.620;2023-01-25T06:12:20;96444.91;;;23.38;33.55
22389;BME280;11362;48.102;11.620;2023-01-25T06:14:46;96441.69;;;23.36;33.51
22389;BME280;11362;48.102;11.620;2023-01-25T06:17:11;96441.72;;;23.39;34.01
22389;BME280;11362;48.102;11.620;2023-01-25T06:19:37;96445.28;;;23.40;33.86
22389;BME280;11362;48.102;11.620;2023-01-25T06:22:02;96408.03;;;23.38;34.38
22389;BME280;11362;48.102;11.620;2023-01-25T06:24:27;96414.78;;;23.37;34.33
22389;BME280;11362;48.102;11.620;2023-01-25T06:26:52;96418.31;;;23.33;34.04
22389;BME280;11362;48.102;11.620;2023-01-25T06:29:18;96441.28;;;23.31;33.76
22389;BME280;11362;48.102;11.620;2023-01-25T06:31:43;96404.41;;;23.30;33.34
22389;BME280;11362;48.102;11.620;2023-01-25T06:34:08;96425.41;;;23.28;32.66
22389;BME280;11362;48.102;11.620;2023-01-25T06:36:34;96428.56;;;23.26;32.80
22389;BME280;11362;48.102;11.620;2023-01-25T06:38:59;96416.69;;;23.26;32.97
22389;BME280;11362;48.102;11.620;2023-01-25T06:41:25;96429.34;;;23.27;32.99
22389;BME280;11362;48.102;11.620;2023-01-25T06:43:51;96446.41;;;23.25;32.81
22389;BME280;11362;48.102;11.620;2023-01-25T06:46:17;96465.66;;;23.08;30.07
22389;BME280;11362;48.102;11.620;2023-01-25T06:48:42;96450.53;;;22.55;28.79
22389;BME280;11362;48.102;11.620;2023-01-25T06:51:10;96450.22;;;22.60;28.69
22389;BME280;11362;48.102;11.620;2023-01-25T06:53:37;96446.31;;;22.68;29.39
22389;BME280;11362;48.102;11.620;2023-01-25T06:58:30;96431.41;;;22.83;29.58
22389;BME280;11362;48.102;11.620;2023-01-25T07:01:07;96427.09;;;22.89;29.82
22389;BME280;11362;48.102;11.620;2023-01-25T07:03:36;96416.41;;;22.91;29.69
22389;BME280;11362;48.102;11.620;2023-01-25T07:06:06;96420.38;;;22.90;29.34
22389;BME280;11362;48.102;11.620;2023-01-25T07:08:33;96417.59;;;22.90;29.46
22389;BME280;11362;48.102;11.620;2023-01-25T07:11:03;96406.03;;;22.77;28.18
22389;BME280;11362;48.102;11.620;2023-01-25T07:13:30;96378.72;;;22.76;28.54
22389;BME280;11362;48.102;11.620;2023-01-25T07:16:04;96374.41;;;22.82;29.09
22389;BME280;11362;48.102;11.620;2023-01-25T07:18:30;96344.75;;;22.86;29.34
22389;BME280;11362;48.102;11.620;2023-01-25T07:21:06;96343.97;;;22.89;29.83
22389;BME280;11362;48.102;11.620;2023-01-25T07:23:32;96345.56;;;22.90;29.94
22389;BME280;11362;48.102;11.620;2023-01-25T07:25:58;96347.56;;;22.93;29.92
22389;BME280;11362;48.102;11.620;2023-01-25T07:28:25;96340.44;;;22.92;29.58
22389;BME280;11362;48.102;11.620;2023-01-25T07:30:50;96343.63;;;22.94;29.63
22389;BME280;11362;48.102;11.620;2023-01-25T07:33:16;96372.91;;;22.95;30.05
22389;BME280;11362;48.102;11.620;2023-01-25T07:35:41;96383.19;;;22.94;29.87
22389;BME280;11362;48.102;11.620;2023-01-25T07:38:06;96374.50;;;22.96;29.82
22389;BME280;11362;48.102;11.620;2023-01-25T07:40:32;96380.03;;;22.96;29.77
22389;BME280;11362;48.102;11.620;2023-01-25T07:42:57;96425.97;;;22.97;30.33
22389;BME280;11362;48.102;11.620;2023-01-25T07:45:23;96433.53;;;23.00;30.40
22389;BME280;11362;48.102;11.620;2023-01-25T07:47:48;96424.78;;;22.98;30.65
22389;BME280;11362;48.102;11.620;2023-01-25T07:50:14;96419.66;;;23.00;30.25
22389;BME280;11362;48.102;11.620;2023-01-25T07:52:39;96437.06;;;23.00;29.91
22389;BME280;11362;48.102;11.620;2023-01-25T07:55:04;96431.97;;;23.02;30.44
22389;BME280;11362;48.102;11.620;2023-01-25T07:57:30;96433.13;;;23.05;30.64
22389;BME280;11362;48.102;11.620;2023-01-25T07:59:55;96405.06;;;23.06;30.34
22389;BME280;11362;48.102;11.620;2023-01-25T08:02:21;96399.13;;;23.08;30.51
22389;BME280;11362;48.102;11.620;2023-01-25T08:04:47;96407.06;;;23.09;30.78
22389;BME280;11362;48.102;11.620;2023-01-25T08:07:13;96403.50;;;23.09;30.46
22389;BME280;11362;48.102;11.620;2023-01-25T08:09:40;96403.88;;;23.11;30.52
22389;BME280;11362;48.102;11.620;2023-01-25T08:12:06;96408.25;;;23.12;30.66
22389;BME280;11362;48.102;11.620;2023-01-25T08:14:32;96399.16;;;23.11;30.80
22389;BME280;11362;48.102;11.620;2023-01-25T08:16:57;96401.53;;;23.13;30.81
22389;BME280;11362;48.102;11.620;2023-01-25T08:19:23;96397.16;;;23.12;30.67
22389;BME280;11362;48.102;11.620;2023-01-25T08:21:48;96393.63;;;23.15;30.87
22389;BME280;11362;48.102;11.620;2023-01-25T08:24:13;96389.69;;;23.16;30.94
22389;BME280;11362;48.102;11.620;2023-01-25T08:26:38;96398.41;;;23.18;30.87
22389;BME280;11362;48.102;11.620;2023-01-25T08:29:05;96388.91;;;23.19;31.11
22389;BME280;11362;48.102;11.620;2023-01-25T08:31:32;96393.28;;;23.20;30.91
22389;BME280;11362;48.102;11.620;2023-01-25T08:33:58;96389.75;;;23.23;30.70
22389;BME280;11362;48.102;11.620;2023-01-25T08:36:24;96394.09;;;23.24;30.98
22389;BME280;11362;48.102;11.620;2023-01-25T08:38:55;96386.97;;;23.23;31.15
22389;BME280;11362;48.102;11.620;2023-01-25T08:41:21;96388.56;;;23.24;31.22
22389;BME280;11362;48.102;11.620;2023-01-25T08:43:47;96391.31;;;23.24;31.13
22389;BME280;11362;48.102;11.620;2023-01-25T08:46:16;96385.78;;;23.24;31.34
22389;BME280;11362;48.102;11.620;2023-01-25T08:48:42;96361.22;;;23.26;30.85
22389;BME280;11362;48.102;11.620;2023-01-25T08:51:08;96368.34;;;23.27;31.16
22389;BME280;11362;48.102;11.620;2023-01-25T08:53:35;96385.00;;;23.27;31.23
22389;BME280;11362;48.102;11.620;2023-01-25T08:56:05;96385.81;;;23.27;30.88
22389;BME280;11362;48.102;11.620;2023-01-25T08:58:31;96381.06;;;23.28;31.28
22389;BME280;11362;48.102;11.620;2023-01-25T09:01:01;96377.50;;;23.27;31.22
22389;BME280;11362;48.102;11.620;2023-01-25T09:03:27;96370.75;;;23.28;31.31
22389;BME280;11362;48.102;11.620;2023-01-25T09:05:53;96371.56;;;23.29;31.23
22389;BME280;11362;48.102;11.620;2023-01-25T09:08:18;96377.09;;;23.29;31.30
22389;BME280;11362;48.102;11.620;2023-01-25T09:10:44;96371.56;;;23.29;31.05
22389;BME280;11362;48.102;11.620;2023-01-25T09:13:09;96364.03;;;23.33;31.06
22389;BME280;11362;48.102;11.620;2023-01-25T09:15:34;96359.69;;;23.32;30.75
22389;BME280;11362;48.102;11.620;2023-01-25T09:18:00;96367.22;;;23.31;31.36
22389;BME280;11362;48.102;11.620;2023-01-25T09:20:25;96366.03;;;23.32;31.54
22389;BME280;11362;48.102;11.620;2023-01-25T09:22:50;96367.22;;;23.31;31.48
22389;BME280;11362;48.102;11.620;2023-01-25T09:25:16;96363.66;;;23.31;31.46
22389;BME280;11362;48.102;11.620;2023-01-25T09:27:41;96365.22;;;23.32;31.51
22389;BME280;11362;48.102;11.620;2023-01-25T09:30:09;96361.25;;;23.33;31.44
22389;BME280;11362;48.102;11.620;2023-01-25T09:32:34;96357.72;;;23.32;31.59
22389;BME280;11362;48.102;11.620;2023-01-25T09:35:00;96362.84;;;23.33;31.43
22389;BME280;11362;48.102;11.620;2023-01-25T09:37:25;96364.47;;;23.35;31.43
22389;BME280;11362;48.102;11.620;2023-01-25T09:39:50;96368.41;;;23.33;31.74
22389;BME280;11362;48.102;11.620;2023-01-25T09:42:26;96363.66;;;23.34;31.79
22389;BME280;11362;48.102;11.620;2023-01-25T09:45:10;96353.38;;;23.35;31.72
22389;BME280;11362;48.102;11.620;2023-01-25T09:47:53;96362.09;;;23.37;31.87
22389;BME280;11362;48.102;11.620;2023-01-25T09:55:43;96364.88;;;23.37;31.69
22389;BME280;11362;48.102;11.620;2023-01-25T09:58:13;96358.94;;;23.38;31.58
22389;BME280;11362;48.102;11.620;2023-01-25T10:00:44;96347.03;;;23.38;31.68
22389;BME280;11362;48.102;11.620;2023-01-25T10:03:23;96344.25;;;23.38;31.48
22389;BME280;11362;48.102;11.620;2023-01-25T10:05:52;96341.50;;;23.38;31.44
22389;BME280;11362;48.102;11.620;2023-01-25T10:08:23;96337.53;;;23.38;31.20
22389;BME280;11362;48.102;11.620;2023-01-25T10:10:57;96332.78;;;23.36;31.09
22389;BME280;11362;48.102;11.620;2023-01-25T10:13:23;96328.81;;;23.37;31.66
22389;BME280;11362;48.102;11.620;2023-01-25T10:15:51;96349.00;;;23.37;31.41
22389;BME280;11362;48.102;11.620;2023-01-25T10:18:36;96282.88;;;23.36;31.56
22389;BME280;11362;48.102;11.620;2023-01-25T10:21:33;96279.66;;;23.33;31.63
22389;BME280;11362;48.102;11.620;2023-01-25T10:26:57;96326.81;;;23.33;31.44
22389;BME280;11362;48.102;11.620;2023-01-25T10:29:31;96323.25;;;23.33;31.83
22389;BME280;11362;48.102;11.620;2023-01-25T10:34:46;96297.94;;;23.35;31.79
22389;BME280;11362;48.102;11.620;2023-01-25T10:37:14;96292.38;;;23.35;31.71
22389;BME280;11362;48.102;11.620;2023-01-25T10:39:51;96312.94;;;23.33;32.20
22389;BME280;11362;48.102;11.620;2023-01-25T10:42:17;96310.59;;;23.36;32.29
22389;BME280;11362;48.102;11.620;2023-01-25T10:44:43;96310.59;;;23.36;32.84
22389;BME280;11362;48.102;11.620;2023-01-25T10:47:27;96304.25;;;23.38;33.07
22389;BME280;11362;48.102;11.620;2023-01-25T10:49:57;96307.44;;;23.40;32.55
22389;BME280;11362;48.102;11.620;2023-01-25T10:52:30;96296.34;;;23.40;33.13
22389;BME280;11362;48.102;11.620;2023-01-25T10:55:14;96294.75;;;23.43;33.06
22389;BME280;11362;48.102;11.620;2023-01-25T10:57:47;96283.28;;;23.41;33.25
22389;BME280;11362;48.102;11.620;2023-01-25T11:02:47;96284.47;;;23.43;32.92
22389;BME280;11362;48.102;11.620;2023-01-25T11:05:34;96285.66;;;23.42;33.03
22389;BME280;11362;48.102;11.620;2023-01-25T11:08:23;96276.16;;;23.43;33.18
22389;BME280;11362;48.102;11.620;2023-01-25T11:10:49;96272.19;;;23.44;32.83
22389;BME280;11362;48.102;11.620;2023-01-25T11:15:48;96257.53;;;23.44;33.12
22389;BME280;11362;48.102;11.620;2023-01-25T11:18:20;96255.56;;;23.44;33.28
22389;BME280;11362;48.102;11.620;2023-01-25T11:20:46;96251.97;;;23.44;33.10
22389;BME280;11362;48.102;11.620;2023-01-25T11:23:30;96246.44;;;23.44;32.98
22389;BME280;11362;48.102;11.620;2023-01-25T11:26:10;96248.81;;;23.45;32.96
22389;BME280;11362;48.102;11.620;2023-01-25T11:28:36;96240.88;;;23.44;32.97
22389;BME280;11362;48.102;11.620;2023-01-25T11:31:01;96241.69;;;23.44;33.11
22389;BME280;11362;48.102;11.620;2023-01-25T11:33:26;96221.09;;;23.45;33.25
22389;BME280;11362;48.102;11.620;2023-01-25T11:38:32;96208.41;;;23.44;33.01
22389;BME280;11362;48.102;11.620;2023-01-25T11:41:09;96227.81;;;23.44;33.31
22389;BME280;11362;48.102;11.620;2023-01-25T11:49:33;96209.22;;;23.42;32.89
22389;BME280;11362;48.102;11.620;2023-01-25T11:55:21;96195.34;;;23.42;33.07
22389;BME280;11362;48.102;11.620;2023-01-25T11:58:10;96188.19;;;23.40;33.01
22389;BME280;11362;48.102;11.620;2023-01-25T12:06:32;96161.28;;;23.38;32.75
22389;BME280;11362;48.102;11.620;2023-01-25T12:09:24;96133.53;;;23.38;32.84
22389;BME280;11362;48.102;11.620;2023-01-25T12:12:11;96132.75;;;23.37;32.93
22389;BME280;11362;48.102;11.620;2023-01-25T12:17:41;96123.25;;;23.35;32.56
22389;BME280;11362;48.102;11.620;2023-01-25T12:20:22;96120.88;;;23.37;32.72
22389;BME280;11362;48.102;11.620;2023-01-25T12:23:07;96149.78;;;23.36;32.76
22389;BME280;11362;48.102;11.620;2023-01-25T12:25:46;96121.66;;;23.33;32.35
22389;BME280;11362;48.102;11.620;2023-01-25T12:28:22;96128.00;;;23.34;31.93
22389;BME280;11362;48.102;11.620;2023-01-25T12:30:58;96118.88;;;23.33;32.20
22389;BME280;11362;48.102;11.620;2023-01-25T12:33:39;96116.53;;;23.36;32.67
22389;BME280;11362;48.102;11.620;2023-01-25T12:36:13;96116.53;;;23.36;32.87
22389;BME280;11362;48.102;11.620;2023-01-25T12:38:59;96114.94;;;23.35;32.74
22389;BME280;11362;48.102;11.620;2023-01-25T12:41:46;96139.06;;;23.31;32.59
22389;BME280;11362;48.102;11.620;2023-01-25T12:44:18;96139.88;;;23.31;32.06
22389;BME280;11362;48.102;11.620;2023-01-25T12:46:54;96128.81;;;23.31;32.23
22389;BME280;11362;48.102;11.620;2023-01-25T12:49:32;96113.31;;;23.30;32.18
22389;BME280;11362;48.102;11.620;2023-01-25T12:52:05;96103.84;;;23.28;32.16
22389;BME280;11362;48.102;11.620;2023-01-25T12:54:34;96097.50;;;23.27;32.20
22389;BME280;11362;48.102;11.620;2023-01-25T12:57:10;96095.53;;;23.28;31.90
22389;BME280;11362;48.102;11.620;2023-01-25T12:59:59;96094.72;;;23.31;32.20
22389;BME280;11362;48.102;11.620;2023-01-25T13:05:37;96090.38;;;23.33;32.37
22389;BME280;11362;48.102;11.620;2023-01-25T13:11:10;96086.78;;;23.33;33.44
22389;BME280;11362;48.102;11.620;2023-01-25T13:13:37;96085.59;;;23.33;33.69
22389;BME280;11362;48.102;11.620;2023-01-25T13:18:54;96054.34;;;23.37;33.71
22389;BME280;11362;48.102;11.620;2023-01-25T13:21:39;96061.84;;;23.36;33.89
22389;BME280;11362;48.102;11.620;2023-01-25T13:26:44;96106.19;;;23.33;33.05
22389;BME280;11362;48.102;11.620;2023-01-25T13:32:10;96080.06;;;23.30;33.22
22389;BME280;11362;48.102;11.620;2023-01-25T13:37:12;96086.78;;;23.29;33.39
22389;BME280;11362;48.102;11.620;2023-01-25T13:39:42;96085.59;;;23.30;33.51
22389;BME280;11362;48.102;11.620;2023-01-25T13:44:34;96075.31;;;23.27;33.19
22389;BME280;11362;48.102;11.620;2023-01-25T13:47:06;96073.75;;;23.26;33.14
22389;BME280;11362;48.102;11.620;2023-01-25T13:49:46;96067.38;;;23.26;33.23
22389;BME280;11362;48.102;11.620;2023-01-25T13:52:18;96070.97;;;23.26;33.15
22389;BME280;11362;48.102;11.620;2023-01-25T13:54:44;96056.31;;;23.26;33.11
22389;BME280;11362;48.102;11.620;2023-01-25T13:57:18;96052.34;;;23.27;32.99